Time;durP1;ratioP1;P1;durP2;ratioP2;P2;SDS_P1;SDS_P2;PMS_P1;PMS_P2;Temp;Humidity;BMP_temperature;BMP_pressure;BME280_temperature;BME280_humidity;BME280_pressure;Samples;Min_cycle;Max_cycle;Signal;HPM_P1;HPM_P2
2023/07/30 00:02:26;;;;;;;;;;;;;;;24.03;59.25;96751.75;621158;228;64723;-61
2023/07/30 00:04:54;;;;;;;;;;;;;;;24.04;59.30;96753.37;621137;228;64980;-61
2023/07/30 00:07:21;;;;;;;;;;;;;;;24.03;59.60;96749.07;621151;228;67463;-61
2023/07/30 00:09:49;;;;;;;;;;;;;;;24.03;59.30;96757.13;621216;228;64719;-61
2023/07/30 00:12:16;;;;;;;;;;;;;;;24.03;58.53;96751.75;621125;227;65732;-61
2023/07/30 00:14:44;;;;;;;;;;;;;;;24.03;59.77;96748.28;621201;228;67071;-61
2023/07/30 00:17:11;;;;;;;;;;;;;;;24.03;60.29;96751.75;621192;228;64689;-61
2023/07/30 00:19:39;;;;;;;;;;;;;;;24.02;59.40;96747.48;621190;228;67212;-61
2023/07/30 00:22:06;;;;;;;;;;;;;;;24.02;57.68;96747.48;621274;228;64968;-61
2023/07/30 00:24:34;;;;;;;;;;;;;;;24.02;59.23;96744.80;621216;228;64599;-61
2023/07/30 00:27:01;;;;;;;;;;;;;;;24.02;59.90;96755.55;621202;228;66923;-61
2023/07/30 00:29:28;;;;;;;;;;;;;;;24.02;59.29;96752.86;621212;228;67797;-61
2023/07/30 00:31:56;;;;;;;;;;;;;;;24.03;60.86;96748.28;621121;228;62262;-61
2023/07/30 00:34:23;;;;;;;;;;;;;;;24.01;58.91;96756.64;621247;228;67295;-61
2023/07/30 00:36:51;;;;;;;;;;;;;;;24.00;59.08;96752.35;621181;228;64909;-61
2023/07/30 00:39:18;;;;;;;;;;;;;;;24.01;58.43;96745.91;621212;228;62466;-61
2023/07/30 00:41:46;;;;;;;;;;;;;;;24.01;58.75;96751.28;621167;228;64915;-61
2023/07/30 00:44:14;;;;;;;;;;;;;;;24.02;59.13;96752.07;621173;228;66907;-68
2023/07/30 00:46:42;;;;;;;;;;;;;;;24.01;59.09;96743.23;621241;228;63552;-69
2023/07/30 00:49:09;;;;;;;;;;;;;;;24.00;59.58;96746.98;621199;228;65075;-69
2023/07/30 00:51:38;;;;;;;;;;;;;;;24.00;59.62;96749.67;621205;228;65041;-69
2023/07/30 00:54:05;;;;;;;;;;;;;;;24.01;60.70;96745.91;621197;228;62442;-69
2023/07/30 00:56:33;;;;;;;;;;;;;;;24.01;58.57;96745.91;621162;228;64772;-69
2023/07/30 00:59:01;;;;;;;;;;;;;;;24.01;58.89;96742.41;621241;228;64892;-69
2023/07/30 01:01:29;;;;;;;;;;;;;;;24.00;59.37;96738.93;621226;228;63440;-68
2023/07/30 01:03:56;;;;;;;;;;;;;;;24.01;60.24;96739.72;621190;228;64941;-69
2023/07/30 01:06:24;;;;;;;;;;;;;;;24.00;59.32;96738.14;621176;228;65164;-69
2023/07/30 01:08:51;;;;;;;;;;;;;;;23.99;59.98;96731.98;621213;228;62727;-69
2023/07/30 01:11:19;;;;;;;;;;;;;;;23.98;58.20;96730.41;621199;227;67693;-68
2023/07/30 01:13:47;;;;;;;;;;;;;;;23.99;60.72;96731.98;622333;228;66851;-69
2023/07/30 01:16:14;;;;;;;;;;;;;;;23.99;58.52;96739.25;622280;228;64731;-69
2023/07/30 01:18:42;;;;;;;;;;;;;;;23.99;59.08;96739.25;622284;228;67035;-69
2023/07/30 01:21:09;;;;;;;;;;;;;;;23.99;59.51;96736.56;622235;228;67335;-69
2023/07/30 01:23:37;;;;;;;;;;;;;;;23.99;59.53;96736.56;622272;228;64801;-69
2023/07/30 01:26:09;;;;;;;;;;;;;;;23.97;58.62;96731.48;622277;228;65107;-69
2023/07/30 01:28:38;;;;;;;;;;;;;;;23.97;58.77;96725.32;621913;227;65784;-69
2023/07/30 01:31:07;;;;;;;;;;;;;;;23.96;56.90;96721.84;621862;227;62808;-69
2023/07/30 01:33:34;;;;;;;;;;;;;;;23.97;58.39;96728.79;622261;228;67082;-61
2023/07/30 01:36:02;;;;;;;;;;;;;;;23.96;56.49;96727.21;622306;228;67030;-61
2023/07/30 01:38:30;;;;;;;;;;;;;;;23.97;58.35;96725.32;622337;228;64866;-61
2023/07/30 01:40:59;;;;;;;;;;;;;;;23.98;57.96;96727.72;622259;228;65464;-61
2023/07/30 01:43:27;;;;;;;;;;;;;;;23.97;58.08;96726.11;622283;228;66934;-61
2023/07/30 01:45:54;;;;;;;;;;;;;;;23.96;57.42;96735.27;622248;228;64780;-61
2023/07/30 01:48:22;;;;;;;;;;;;;;;23.96;58.39;96727.21;622268;228;66063;-61
2023/07/30 01:50:50;;;;;;;;;;;;;;;23.96;57.98;96727.21;622331;228;67523;-61
2023/07/30 01:53:17;;;;;;;;;;;;;;;23.96;58.05;96737.95;622284;228;64695;-61
2023/07/30 01:55:46;;;;;;;;;;;;;;;23.96;58.47;96729.89;622268;228;67200;-61
2023/07/30 01:58:14;;;;;;;;;;;;;;;23.97;60.50;96728.79;622268;228;65138;-61
2023/07/30 02:00:41;;;;;;;;;;;;;;;23.95;58.03;96728.28;622317;228;64710;-61
2023/07/30 02:03:08;;;;;;;;;;;;;;;23.95;57.39;96725.60;622314;228;67308;-61
2023/07/30 02:05:36;;;;;;;;;;;;;;;23.95;57.78;96717.55;622279;228;64372;-61
2023/07/30 02:08:04;;;;;;;;;;;;;;;23.96;57.81;96721.05;622308;228;65267;-61
2023/07/30 02:10:31;;;;;;;;;;;;;;;23.96;58.15;96726.42;622259;228;66958;-61
2023/07/30 02:12:59;;;;;;;;;;;;;;;23.95;58.06;96730.97;621419;227;66701;-69
2023/07/30 02:15:26;;;;;;;;;;;;;;;23.95;58.14;96725.60;621203;228;64677;-68
2023/07/30 02:17:54;;;;;;;;;;;;;;;23.95;58.05;96732.86;621229;228;64154;-69
2023/07/30 02:20:21;;;;;;;;;;;;;;;23.95;58.79;96724.81;621210;228;66837;-69
2023/07/30 02:22:49;;;;;;;;;;;;;;;23.95;57.46;96730.18;621195;228;65024;-69
2023/07/30 02:25:16;;;;;;;;;;;;;;;23.94;57.40;96729.39;621173;228;66824;-68
2023/07/30 02:27:44;;;;;;;;;;;;;;;23.94;57.94;96729.39;621212;228;66781;-69
2023/07/30 02:30:11;;;;;;;;;;;;;;;23.94;57.33;96734.76;621219;228;64699;-68
2023/07/30 02:32:39;;;;;;;;;;;;;;;23.94;58.14;96737.44;621173;228;67148;-68
2023/07/30 02:35:07;;;;;;;;;;;;;;;23.94;58.37;96734.76;621157;228;67373;-61
2023/07/30 02:37:34;;;;;;;;;;;;;;;23.93;59.09;96739.33;621140;228;64755;-61
2023/07/30 02:40:04;;;;;;;;;;;;;;;23.94;59.42;96740.13;621200;228;65050;-61
2023/07/30 02:42:31;;;;;;;;;;;;;;;23.94;60.58;96742.81;621190;228;64896;-60
2023/07/30 02:44:59;;;;;;;;;;;;;;;23.92;58.71;96753.83;621148;228;64727;-60
2023/07/30 02:47:26;;;;;;;;;;;;;;;23.93;58.18;96754.65;621155;228;67008;-60
2023/07/30 02:49:54;;;;;;;;;;;;;;;23.93;58.78;96752.75;621191;228;67310;-60
2023/07/30 02:52:21;;;;;;;;;;;;;;;23.92;56.82;96750.35;621198;228;64713;-60
2023/07/30 02:54:49;;;;;;;;;;;;;;;23.93;58.27;96757.33;621250;228;66972;-60
2023/07/30 02:57:16;;;;;;;;;;;;;;;23.91;57.09;96754.94;621213;228;66996;-61
2023/07/30 02:59:44;;;;;;;;;;;;;;;23.92;57.55;96753.04;621144;228;64720;-60
2023/07/30 03:02:11;;;;;;;;;;;;;;;23.91;57.05;96757.61;621180;228;65190;-60
2023/07/30 03:04:39;;;;;;;;;;;;;;;23.91;57.14;96749.56;621185;228;67521;-60
2023/07/30 03:07:07;;;;;;;;;;;;;;;23.91;56.95;96748.77;621152;228;62345;-61
2023/07/30 03:09:34;;;;;;;;;;;;;;;23.92;58.10;96751.14;621255;228;64876;-61
2023/07/30 03:12:02;;;;;;;;;;;;;;;23.91;58.49;96744.20;621519;227;67073;-61
2023/07/30 03:14:30;;;;;;;;;;;;;;;23.91;58.04;96744.20;622243;228;62233;-60
2023/07/30 03:16:58;;;;;;;;;;;;;;;23.92;57.78;96750.35;622293;228;67626;-60
2023/07/30 03:19:26;;;;;;;;;;;;;;;23.91;57.47;96743.41;622279;228;66890;-60
2023/07/30 03:21:53;;;;;;;;;;;;;;;23.91;59.02;96754.94;622320;228;62733;-61
2023/07/30 03:24:20;;;;;;;;;;;;;;;;;;622257;228;67026;-61
2023/07/30 03:26:47;;;;;;;;;;;;;;;23.91;57.02;96746.09;622240;228;67059;-60
2023/07/30 03:29:15;;;;;;;;;;;;;;;23.91;57.38;96746.87;622283;228;64641;-60
2023/07/30 03:31:43;;;;;;;;;;;;;;;23.91;58.01;96751.45;622252;228;67076;-60
2023/07/30 03:34:10;;;;;;;;;;;;;;;23.90;57.75;96755.24;622328;228;64493;-60
2023/07/30 03:36:38;;;;;;;;;;;;;;;23.91;58.18;96759.51;622278;228;64867;-60
2023/07/30 03:39:05;;;;;;;;;;;;;;;23.89;58.04;96756.31;622234;228;64976;-61
2023/07/30 03:41:33;;;;;;;;;;;;;;;23.89;57.68;96751.73;622260;228;67008;-61
2023/07/30 03:44:00;;;;;;;;;;;;;;;23.88;56.85;96754.73;622259;228;65656;-61
2023/07/30 03:46:28;;;;;;;;;;;;;;;23.88;57.98;96763.58;622294;228;67074;-61
2023/07/30 03:48:56;;;;;;;;;;;;;;;23.89;57.44;96767.84;622278;228;67303;-60
2023/07/30 03:51:23;;;;;;;;;;;;;;;23.88;57.00;96766.27;622286;228;63359;-61
2023/07/30 03:53:51;;;;;;;;;;;;;;;23.90;57.86;96771.34;622316;228;67039;-61
2023/07/30 03:56:18;;;;;;;;;;;;;;;23.88;57.13;96768.95;622310;228;64867;-61
2023/07/30 03:58:46;;;;;;;;;;;;;;;23.90;59.25;96768.66;622336;228;63417;-60
2023/07/30 04:01:13;;;;;;;;;;;;;;;23.90;59.41;96771.34;622370;228;67058;-60
2023/07/30 04:03:41;;;;;;;;;;;;;;;23.88;57.92;96776.20;622297;228;67006;-61
2023/07/30 04:06:08;;;;;;;;;;;;;;;23.87;58.04;96770.05;622299;228;64558;-61
2023/07/30 04:08:36;;;;;;;;;;;;;;;23.88;57.96;96773.52;622272;228;66777;-61
2023/07/30 04:11:04;;;;;;;;;;;;;;;23.87;58.10;96770.05;622287;228;65707;-60
2023/07/30 04:13:32;;;;;;;;;;;;;;;23.87;57.82;96766.55;621223;227;65160;-61
2023/07/30 04:16:00;;;;;;;;;;;;;;;23.88;59.60;96762.78;621222;228;64963;-60
2023/07/30 04:18:29;;;;;;;;;;;;;;;23.88;58.49;96762.78;621215;228;67464;-61
2023/07/30 04:20:56;;;;;;;;;;;;;;;23.86;60.55;96773.80;621171;228;64691;-60
2023/07/30 04:23:24;;;;;;;;;;;;;;;23.87;62.08;96770.05;621190;228;66993;-60
2023/07/30 04:25:51;;;;;;;;;;;;;;;23.87;61.15;96771.91;621219;228;67381;-60
2023/07/30 04:28:19;;;;;;;;;;;;;;;23.85;61.66;96768.75;621198;228;65146;-61
2023/07/30 04:30:47;;;;;;;;;;;;;;;23.84;60.06;96767.14;621213;228;65147;-61
2023/07/30 04:33:14;;;;;;;;;;;;;;;23.85;60.52;96774.11;621200;228;65713;-60
2023/07/30 04:35:42;;;;;;;;;;;;;;;23.83;61.78;96771.71;621174;228;62801;-60
2023/07/30 04:38:10;;;;;;;;;;;;;;;23.83;61.05;96770.92;621227;228;67667;-68
2023/07/30 04:40:39;;;;;;;;;;;;;;;23.84;60.22;96775.19;621201;228;66946;-68
2023/07/30 04:43:07;;;;;;;;;;;;;;;23.84;59.34;96777.87;621205;228;62648;-68
2023/07/30 04:45:35;;;;;;;;;;;;;;;23.82;58.53;96774.70;621167;228;67897;-68
2023/07/30 04:48:03;;;;;;;;;;;;;;;23.84;60.90;96777.87;621173;228;64921;-68
2023/07/30 04:50:31;;;;;;;;;;;;;;;23.85;60.70;96787.53;621239;228;64757;-68
2023/07/30 04:52:59;;;;;;;;;;;;;;;23.84;59.32;96783.23;621223;228;65669;-68
2023/07/30 04:55:26;;;;;;;;;;;;;;;23.82;58.09;96777.39;621208;228;64663;-68
2023/07/30 04:57:54;;;;;;;;;;;;;;;23.82;57.84;96775.50;621200;228;65179;-68
2023/07/30 05:00:22;;;;;;;;;;;;;;;23.83;59.09;96774.40;621198;228;67082;-68
2023/07/30 05:02:49;;;;;;;;;;;;;;;23.84;61.30;96777.87;621214;228;65143;-68
2023/07/30 05:05:17;;;;;;;;;;;;;;;23.82;59.76;96772.81;621250;228;64752;-68
2023/07/30 05:07:44;;;;;;;;;;;;;;;23.83;60.40;96778.97;621184;228;67197;-68
2023/07/30 05:10:12;;;;;;;;;;;;;;;23.82;60.52;96763.98;621207;228;65040;-68
2023/07/30 05:12:39;;;;;;;;;;;;;;;23.84;61.98;96772.50;621806;227;63514;-68
2023/07/30 05:15:07;;;;;;;;;;;;;;;23.83;62.22;96776.29;622276;228;67116;-68
2023/07/30 05:17:34;;;;;;;;;;;;;;;23.82;61.82;96769.34;622336;228;67083;-68
2023/07/30 05:20:02;;;;;;;;;;;;;;;23.82;60.38;96766.66;622323;228;64894;-68
2023/07/30 05:22:29;;;;;;;;;;;;;;;23.82;61.72;96769.34;622288;228;67006;-68
2023/07/30 05:24:57;;;;;;;;;;;;;;;23.82;61.95;96769.34;622279;228;66994;-68
2023/07/30 05:27:24;;;;;;;;;;;;;;;23.82;62.31;96772.03;622273;228;64634;-68
2023/07/30 05:29:52;;;;;;;;;;;;;;;23.80;61.46;96764.26;622278;228;67529;-68
2023/07/30 05:32:19;;;;;;;;;;;;;;;23.79;60.91;96762.67;622277;228;67059;-68
2023/07/30 05:34:47;;;;;;;;;;;;;;;23.80;61.07;96764.26;622267;228;64844;-68
2023/07/30 05:37:14;;;;;;;;;;;;;;;23.79;61.07;96759.99;622262;228;67249;-68
2023/07/30 05:39:42;;;;;;;;;;;;;;;23.79;60.62;96769.91;622280;228;67198;-68
2023/07/30 05:42:09;;;;;;;;;;;;;;;23.79;60.27;96762.67;622330;228;64690;-68
2023/07/30 05:44:37;;;;;;;;;;;;;;;23.80;60.69;96766.94;622248;228;67151;-68
2023/07/30 05:47:04;;;;;;;;;;;;;;;23.80;61.35;96768.83;622261;228;67152;-68
2023/07/30 05:49:32;;;;;;;;;;;;;;;23.80;61.61;96764.26;622293;228;64742;-68
2023/07/30 05:51:59;;;;;;;;;;;;;;;23.79;61.81;96768.05;622235;228;65137;-68
2023/07/30 05:54:27;;;;;;;;;;;;;;;23.79;62.16;96770.72;622329;228;64964;-68
2023/07/30 05:56:54;;;;;;;;;;;;;;;23.79;61.42;96770.72;622241;228;64678;-68
2023/07/30 05:59:21;;;;;;;;;;;;;;;23.80;61.89;96763.47;622256;228;67121;-68
2023/07/30 06:01:49;;;;;;;;;;;;;;;23.80;61.86;96771.52;622278;228;67102;-68
2023/07/30 06:04:16;;;;;;;;;;;;;;;23.81;62.10;96770.41;622270;228;64895;-68
2023/07/30 06:06:44;;;;;;;;;;;;;;;23.80;62.35;96769.63;622335;228;67319;-68
2023/07/30 06:09:12;;;;;;;;;;;;;;;23.79;62.44;96764.54;622314;228;66562;-68
2023/07/30 06:11:39;;;;;;;;;;;;;;;23.80;62.17;96763.47;622004;227;64777;-68
2023/07/30 06:14:07;;;;;;;;;;;;;;;23.79;62.42;96753.80;621211;228;67086;-69
2023/07/30 06:16:34;;;;;;;;;;;;;;;23.79;61.51;96756.48;621140;228;67176;-68
2023/07/30 06:19:02;;;;;;;;;;;;;;;23.79;62.17;96759.99;621229;228;64898;-68
2023/07/30 06:21:29;;;;;;;;;;;;;;;23.79;59.93;96753.80;621245;228;66884;-68
2023/07/30 06:23:57;;;;;;;;;;;;;;;23.79;54.69;96756.48;621174;228;64816;-68
2023/07/30 06:26:24;;;;;;;;;;;;;;;23.82;54.64;96753.24;621189;228;62680;-68
2023/07/30 06:28:52;;;;;;;;;;;;;;;23.84;55.41;96756.41;621200;228;66995;-68
2023/07/30 06:31:19;;;;;;;;;;;;;;;23.85;54.79;96750.75;621178;228;64889;-68
2023/07/30 06:33:47;;;;;;;;;;;;;;;23.88;54.91;96757.42;621256;228;62720;-68
2023/07/30 06:36:14;;;;;;;;;;;;;;;23.88;55.49;96752.05;621190;228;64591;-68
2023/07/30 06:38:42;;;;;;;;;;;;;;;23.89;55.73;96749.05;621143;228;64921;-68
2023/07/30 06:41:09;;;;;;;;;;;;;;;23.90;55.22;96741.83;621079;228;65610;-60
2023/07/30 06:43:37;;;;;;;;;;;;;;;23.92;56.65;96742.30;621210;228;67358;-60
2023/07/30 06:46:04;;;;;;;;;;;;;;;23.91;56.36;96736.14;621211;228;65830;-60
2023/07/30 06:48:31;;;;;;;;;;;;;;;;;;621169;228;64620;-60
2023/07/30 06:50:58;;;;;;;;;;;;;;;23.92;55.77;96745.78;621209;228;63744;-61
2023/07/30 06:53:26;;;;;;;;;;;;;;;23.94;56.47;96729.39;621197;228;65164;-68
2023/07/30 06:55:53;;;;;;;;;;;;;;;23.93;55.10;96728.60;621239;228;64748;-68
2023/07/30 06:58:21;;;;;;;;;;;;;;;23.93;55.05;96733.97;621234;228;71653;-68
2023/07/30 07:00:48;;;;;;;;;;;;;;;23.95;55.10;96730.97;621201;228;67010;-68
2023/07/30 07:03:16;;;;;;;;;;;;;;;23.95;55.11;96724.81;621184;228;64709;-68
2023/07/30 07:05:43;;;;;;;;;;;;;;;23.96;55.18;96729.89;621132;228;67198;-68
2023/07/30 07:08:10;;;;;;;;;;;;;;;23.97;55.22;96720.73;621170;228;64968;-68
2023/07/30 07:10:38;;;;;;;;;;;;;;;23.96;55.22;96719.16;621154;228;62329;-67
2023/07/30 07:13:06;;;;;;;;;;;;;;;23.98;55.16;96726.90;622009;227;65020;-68
2023/07/30 07:15:33;;;;;;;;;;;;;;;23.98;55.17;96721.53;622258;228;64881;-68
2023/07/30 07:18:01;;;;;;;;;;;;;;;23.99;55.11;96725.83;622253;228;62600;-68
2023/07/30 07:20:28;;;;;;;;;;;;;;;24.00;55.23;96719.35;622239;228;67251;-61
2023/07/30 07:22:56;;;;;;;;;;;;;;;24.00;55.19;96722.04;622319;228;66998;-61
2023/07/30 07:25:24;;;;;;;;;;;;;;;24.01;54.88;96723.62;622252;228;64723;-61
2023/07/30 07:27:51;;;;;;;;;;;;;;;24.01;53.66;96724.44;622248;228;67895;-60
2023/07/30 07:30:19;;;;;;;;;;;;;;;24.02;54.34;96715.28;622244;228;67510;-60
2023/07/30 07:32:50;;;;;;;;;;;;;;;24.04;53.70;96717.68;622218;228;64540;-60
2023/07/30 07:35:15;;;;;;;;;;;;;;;24.03;52.63;96713.39;622167;227;67252;-60
2023/07/30 07:37:43;;;;;;;;;;;;;;;24.05;54.06;96703.16;622235;228;67071;-60
2023/07/30 07:40:10;;;;;;;;;;;;;;;24.05;55.27;96711.20;622243;228;64703;-60
2023/07/30 07:42:39;;;;;;;;;;;;;;;24.04;55.61;96709.63;622218;228;67317;-60
2023/07/30 07:45:07;;;;;;;;;;;;;;;24.04;55.40;96709.63;622238;228;67016;-60
2023/07/30 07:47:35;;;;;;;;;;;;;;;24.04;55.34;96705.05;622345;228;64728;-60
2023/07/30 07:50:02;;;;;;;;;;;;;;;24.05;53.98;96703.95;622244;228;64679;-60
2023/07/30 07:52:30;;;;;;;;;;;;;;;24.05;53.73;96703.95;622264;228;66755;-60
2023/07/30 07:54:58;;;;;;;;;;;;;;;24.07;54.18;96704.45;622240;228;64826;-61
2023/07/30 07:57:25;;;;;;;;;;;;;;;24.06;54.35;96697.50;622268;228;67457;-60
2023/07/30 07:59:53;;;;;;;;;;;;;;;24.07;54.13;96698.30;622279;228;64857;-60
2023/07/30 08:02:20;;;;;;;;;;;;;;;24.07;53.71;96691.03;622299;228;64746;-61
2023/07/30 08:04:48;;;;;;;;;;;;;;;24.07;53.65;96696.40;622259;228;67275;-60
2023/07/30 08:07:15;;;;;;;;;;;;;;;24.08;53.25;96689.92;622250;228;65006;-60
2023/07/30 08:09:43;;;;;;;;;;;;;;;24.08;53.58;96689.92;622242;228;64734;-60
2023/07/30 08:12:10;;;;;;;;;;;;;;;24.07;53.29;96691.03;622257;227;67270;-61
2023/07/30 08:14:37;;;;;;;;;;;;;;;24.08;53.35;96692.61;622300;228;67102;-61
2023/07/30 08:17:05;;;;;;;;;;;;;;;24.09;54.50;96688.03;622257;228;62516;-60
2023/07/30 08:19:32;;;;;;;;;;;;;;;24.09;54.49;96688.03;622234;228;64858;-61
2023/07/30 08:22:00;;;;;;;;;;;;;;;24.08;53.92;96692.61;622250;228;65000;-61
2023/07/30 08:24:27;;;;;;;;;;;;;;;24.10;53.72;96685.05;622237;228;64687;-60
2023/07/30 08:26:55;;;;;;;;;;;;;;;24.10;53.08;96682.38;622265;228;67093;-60
2023/07/30 08:29:22;;;;;;;;;;;;;;;24.11;53.66;96675.11;622251;228;67167;-60
2023/07/30 08:31:50;;;;;;;;;;;;;;;24.10;54.07;96668.95;622214;228;64886;-60
2023/07/30 08:34:17;;;;;;;;;;;;;;;24.10;54.04;96668.95;622283;228;64932;-60
2023/07/30 08:36:45;;;;;;;;;;;;;;;24.12;53.63;96665.98;622313;228;64642;-60
2023/07/30 08:39:12;;;;;;;;;;;;;;;24.11;53.62;96661.69;622326;228;62587;-62
2023/07/30 08:41:40;;;;;;;;;;;;;;;24.11;53.19;96659.79;622265;228;67042;-61
2023/07/30 08:44:08;;;;;;;;;;;;;;;24.13;53.44;96646.87;622278;228;67494;-60
2023/07/30 08:46:35;;;;;;;;;;;;;;;24.12;53.10;96656.03;622266;228;64630;-60
2023/07/30 08:49:03;;;;;;;;;;;;;;;24.12;52.78;96647.19;617110;228;67130;-60
2023/07/30 08:51:32;;;;;;;;;;;;;;;24.12;52.62;96645.30;622344;228;67069;-60
2023/07/30 08:54:01;;;;;;;;;;;;;;;24.14;52.76;96648.48;622242;228;64953;-60
2023/07/30 08:56:31;;;;;;;;;;;;;;;24.13;52.55;96652.23;622294;228;65119;-60
2023/07/30 08:59:00;;;;;;;;;;;;;;;24.13;52.60;96646.87;622290;228;67073;-61
2023/07/30 09:01:33;;;;;;;;;;;;;;;24.13;52.42;96638.81;622179;227;64634;-61
2023/07/30 09:04:02;;;;;;;;;;;;;;;24.14;52.30;96642.29;622285;228;67068;-61
2023/07/30 09:06:30;;;;;;;;;;;;;;;24.14;52.61;96643.11;622262;228;65069;-61
2023/07/30 09:08:58;;;;;;;;;;;;;;;24.15;52.53;96638.53;622248;228;62771;-61
2023/07/30 09:11:27;;;;;;;;;;;;;;;24.14;52.85;96636.92;622209;227;65319;-61
2023/07/30 09:13:58;;;;;;;;;;;;;;;24.14;52.34;96637.73;622288;228;67111;-61
2023/07/30 09:16:27;;;;;;;;;;;;;;;24.14;52.45;96632.37;622277;228;62677;-61
2023/07/30 09:18:54;;;;;;;;;;;;;;;24.14;51.77;96635.05;622326;228;65043;-61
2023/07/30 09:21:32;;;;;;;;;;;;;;;24.15;52.43;96635.84;622273;228;64896;-61
2023/07/30 09:24:05;;;;;;;;;;;;;;;24.15;52.34;96628.58;622285;228;62687;-62
2023/07/30 09:26:30;;;;;;;;;;;;;;;24.15;52.33;96631.27;622152;227;64540;-62
2023/07/30 09:28:57;;;;;;;;;;;;;;;24.17;52.06;96627.47;622253;228;67146;-62
2023/07/30 09:31:25;;;;;;;;;;;;;;;24.17;51.89;96624.78;622277;228;64832;-62
2023/07/30 09:33:53;;;;;;;;;;;;;;;24.18;51.45;96619.13;622295;228;67222;-62
2023/07/30 09:36:21;;;;;;;;;;;;;;;24.18;52.09;96621.02;622250;228;67073;-62
2023/07/30 09:38:49;;;;;;;;;;;;;;;24.17;51.40;96614.84;622247;228;64865;-60
2023/07/30 09:41:17;;;;;;;;;;;;;;;24.17;50.87;96616.73;622290;228;67101;-59
2023/07/30 09:43:45;;;;;;;;;;;;;;;24.18;50.91;96615.66;622267;228;64979;-61
2023/07/30 09:46:12;;;;;;;;;;;;;;;24.18;50.68;96616.45;622234;228;62702;-59
2023/07/30 09:48:40;;;;;;;;;;;;;;;24.19;50.70;96609.18;622176;228;64998;-62
2023/07/30 09:51:09;;;;;;;;;;;;;;;24.19;50.74;96614.55;622298;228;64773;-62
2023/07/30 09:53:36;;;;;;;;;;;;;;;24.19;50.29;96611.86;622176;228;64760;-62
2023/07/30 09:56:05;;;;;;;;;;;;;;;24.19;50.27;96611.86;622155;228;67139;-62
2023/07/30 09:58:35;;;;;;;;;;;;;;;24.19;50.60;96601.13;622142;228;65245;-60
2023/07/30 10:01:04;;;;;;;;;;;;;;;24.20;50.40;96605.39;622201;228;64695;-59
2023/07/30 10:03:33;;;;;;;;;;;;;;;24.19;50.33;96601.13;622151;228;65093;-60
2023/07/30 10:06:02;;;;;;;;;;;;;;;24.19;50.58;96595.75;622103;228;67077;-60
2023/07/30 10:08:31;;;;;;;;;;;;;;;24.21;50.09;96596.26;622254;228;64692;-61
2023/07/30 10:11:00;;;;;;;;;;;;;;;24.19;50.64;96591.17;622224;228;67270;-61
2023/07/30 10:13:28;;;;;;;;;;;;;;;24.20;50.45;96586.59;622295;227;66936;-61
2023/07/30 10:15:58;;;;;;;;;;;;;;;24.20;49.99;96583.91;622307;228;64735;-61
2023/07/30 10:18:36;;;;;;;;;;;;;;;24.20;49.98;96570.48;622289;228;66713;-61
2023/07/30 10:21:03;;;;;;;;;;;;;;;24.20;49.98;96571.30;617759;228;66886;-60
2023/07/30 10:23:32;;;;;;;;;;;;;;;24.19;50.07;96569.70;622261;228;62419;-60
2023/07/30 10:26:01;;;;;;;;;;;;;;;24.20;50.23;96565.11;622184;227;65023;-60
2023/07/30 10:28:33;;;;;;;;;;;;;;;24.22;49.79;96574.45;621967;227;64807;-60
2023/07/30 10:31:03;;;;;;;;;;;;;;;24.24;49.66;96577.64;622285;228;62716;-61
2023/07/30 10:33:45;;;;;;;;;;;;;;;24.23;49.39;96570.70;622283;228;67186;-61
2023/07/30 10:36:13;;;;;;;;;;;;;;;24.21;49.90;96562.14;621987;227;66882;-61
2023/07/30 10:38:41;;;;;;;;;;;;;;;24.23;49.72;96570.70;622263;228;64758;-61
2023/07/30 10:41:18;;;;;;;;;;;;;;;24.24;49.59;96566.11;622308;228;65265;-61
2023/07/30 10:43:50;;;;;;;;;;;;;;;24.23;49.51;96551.11;622271;228;65095;-61
2023/07/30 10:46:19;;;;;;;;;;;;;;;24.24;49.32;96552.69;622264;228;64672;-61
2023/07/30 10:48:47;;;;;;;;;;;;;;;24.24;49.23;96555.37;622227;228;67238;-61
2023/07/30 10:51:19;;;;;;;;;;;;;;;24.24;49.34;96548.11;622260;228;67012;-61
2023/07/30 10:53:47;;;;;;;;;;;;;;;24.24;49.29;96558.06;622274;228;64722;-61
2023/07/30 10:56:16;;;;;;;;;;;;;;;24.25;49.30;96551.58;622295;228;65029;-61
2023/07/30 10:58:45;;;;;;;;;;;;;;;24.25;49.22;96556.95;622276;228;67067;-61
2023/07/30 11:01:13;;;;;;;;;;;;;;;24.24;49.17;96550.80;622148;228;62660;-61
2023/07/30 11:03:41;;;;;;;;;;;;;;;24.24;49.24;96542.73;622280;228;67187;-61
2023/07/30 11:06:08;;;;;;;;;;;;;;;24.25;49.26;96540.84;622271;228;66843;-68
2023/07/30 11:08:37;;;;;;;;;;;;;;;24.26;49.10;96547.81;622207;228;64704;-68
2023/07/30 11:11:05;;;;;;;;;;;;;;;24.26;49.30;96545.13;622127;228;65182;-68
2023/07/30 11:13:36;;;;;;;;;;;;;;;24.27;49.47;96544.81;621009;227;67400;-61
2023/07/30 11:16:06;;;;;;;;;;;;;;;24.27;49.18;96535.97;621046;228;64821;-61
2023/07/30 11:18:36;;;;;;;;;;;;;;;24.26;49.48;96535.18;621047;228;65003;-60
2023/07/30 11:21:08;;;;;;;;;;;;;;;24.26;49.46;96534.39;621053;228;67119;-60
2023/07/30 11:23:37;;;;;;;;;;;;;;;24.27;49.44;96539.44;620855;228;64741;-60
2023/07/30 11:26:05;;;;;;;;;;;;;;;24.28;49.31;96540.23;620933;228;67088;-60
2023/07/30 11:28:34;;;;;;;;;;;;;;;24.27;49.33;96526.02;621171;228;67019;-68
2023/07/30 11:31:26;;;;;;;;;;;;;;;24.28;49.53;96524.13;621183;228;63499;-68
2023/07/30 11:33:48;;;;;;;;;;;;;;;24.28;49.38;96524.94;620745;228;66999;-68
2023/07/30 11:36:17;;;;;;;;;;;;;;;24.28;49.72;96516.88;621208;228;67073;-68
2023/07/30 11:38:45;;;;;;;;;;;;;;;24.28;49.66;96510.70;621170;228;62605;-68
2023/07/30 11:41:14;;;;;;;;;;;;;;;24.27;49.48;96514.48;621172;228;67500;-68
2023/07/30 11:43:45;;;;;;;;;;;;;;;24.28;49.03;96511.52;621168;228;67050;-68
2023/07/30 11:46:16;;;;;;;;;;;;;;;24.30;49.09;96511.98;621152;228;64905;-69
2023/07/30 11:48:45;;;;;;;;;;;;;;;24.30;49.03;96516.56;621175;228;67290;-67
2023/07/30 11:51:21;;;;;;;;;;;;;;;24.31;48.84;96504.73;621197;228;67304;-61
2023/07/30 11:53:53;;;;;;;;;;;;;;;24.30;49.02;96511.19;621098;228;64744;-60
2023/07/30 11:56:22;;;;;;;;;;;;;;;24.30;49.53;96511.19;621187;228;68023;-61
2023/07/30 11:58:50;;;;;;;;;;;;;;;24.31;49.17;96502.05;621175;228;65188;-61
2023/07/30 12:01:18;;;;;;;;;;;;;;;24.31;49.59;96502.84;621167;228;64866;-61
2023/07/30 12:03:46;;;;;;;;;;;;;;;24.30;49.02;96501.23;621142;228;67947;-61
2023/07/30 12:06:14;;;;;;;;;;;;;;;24.30;49.08;96497.77;621213;228;64989;-62
2023/07/30 12:08:41;;;;;;;;;;;;;;;24.31;48.76;96491.31;621177;228;62681;-60
2023/07/30 12:11:10;;;;;;;;;;;;;;;24.32;48.72;96487.52;621181;228;65243;-60
2023/07/30 12:13:39;;;;;;;;;;;;;;;24.32;49.36;96487.52;621213;228;67098;-60
2023/07/30 12:16:06;;;;;;;;;;;;;;;24.30;49.37;96485.13;620520;228;64726;-61
2023/07/30 12:18:34;;;;;;;;;;;;;;;24.31;49.02;96477.89;621250;228;67284;-61
2023/07/30 12:21:01;;;;;;;;;;;;;;;24.31;48.80;96481.36;621235;228;64585;-61
2023/07/30 12:23:29;;;;;;;;;;;;;;;24.33;48.78;96483.72;621198;228;64500;-61
2023/07/30 12:25:56;;;;;;;;;;;;;;;24.33;48.73;96471.08;621206;228;67388;-61
2023/07/30 12:28:23;;;;;;;;;;;;;;;24.34;48.65;96477.27;621188;228;67466;-61
2023/07/30 12:30:51;;;;;;;;;;;;;;;24.33;48.77;96470.30;621213;228;64739;-61
2023/07/30 12:33:18;;;;;;;;;;;;;;;24.32;48.86;96463.35;621229;228;67236;-61
2023/07/30 12:35:46;;;;;;;;;;;;;;;24.32;49.48;96471.41;621218;228;66910;-61
2023/07/30 12:38:14;;;;;;;;;;;;;;;24.31;49.20;96459.09;621195;228;62604;-61
2023/07/30 12:40:42;;;;;;;;;;;;;;;24.30;49.29;96454.80;621120;228;64757;-61
2023/07/30 12:43:09;;;;;;;;;;;;;;;24.30;49.01;96444.84;621257;228;64941;-61
2023/07/30 12:45:38;;;;;;;;;;;;;;;24.33;48.47;96444.23;621220;228;64738;-61
2023/07/30 12:48:07;;;;;;;;;;;;;;;24.35;48.29;96449.31;621208;228;66935;-61
2023/07/30 12:50:35;;;;;;;;;;;;;;;24.36;48.28;96443.64;621214;228;67107;-61
2023/07/30 12:53:02;;;;;;;;;;;;;;;24.35;48.33;96439.36;621163;228;64794;-69